<?xml version="1.0" encoding="UTF-8" standalone="no" ?>
<gpx xmlns="http://www.topografix.com/GPX/1/1" xmlns:xsi="http://www.w3.org/2001/XMLSchema-instance" xsi:schemaLocation="http://www.topografix.com/GPX/1/1 http://www.topografix.com/GPX/1/1/gpx.xsd" version="1.1" creator="VisuGPX - https://www.visugpx.com">
  <metadata>
    <name>Pravouta</name>
  </metadata>
  <wpt lat="45.30244" lon="5.83695">
    <ele>1434</ele>
    <name><![CDATA[Point de passage 1]]></name>
    <type><![CDATA[GENERIC]]></type>
  </wpt>
  <wpt lat="45.31128" lon="5.83543">
    <ele>1760</ele>
    <name><![CDATA[Point de passage 2]]></name>
    <type><![CDATA[GENERIC]]></type>
  </wpt>
  <trk>
    <name><![CDATA[Randonnée du 09/08/2025 à 11:02]]></name>
    <trkseg>
      <trkpt lat="45.30244" lon="5.83695">
        <ele>1434</ele>
        <time>2025-08-09T09:03:00.000Z</time>
      </trkpt>
      <trkpt lat="45.30243" lon="5.83696">
        <ele>1433</ele>
        <time>2025-08-09T09:03:03.000Z</time>
      </trkpt>
      <trkpt lat="45.30257" lon="5.83679">
        <ele>1434</ele>
        <time>2025-08-09T09:04:18.000Z</time>
      </trkpt>
      <trkpt lat="45.30278" lon="5.83684">
        <ele>1440</ele>
        <time>2025-08-09T09:05:49.000Z</time>
      </trkpt>
      <trkpt lat="45.30298" lon="5.83703">
        <ele>1443</ele>
        <time>2025-08-09T09:06:37.000Z</time>
      </trkpt>
      <trkpt lat="45.30319" lon="5.83716">
        <ele>1441</ele>
        <time>2025-08-09T09:07:10.000Z</time>
      </trkpt>
      <trkpt lat="45.30341" lon="5.8372">
        <ele>1447</ele>
        <time>2025-08-09T09:07:52.000Z</time>
      </trkpt>
      <trkpt lat="45.30364" lon="5.83723">
        <ele>1450</ele>
        <time>2025-08-09T09:08:28.000Z</time>
      </trkpt>
      <trkpt lat="45.30386" lon="5.83727">
        <ele>1454</ele>
        <time>2025-08-09T09:08:55.000Z</time>
      </trkpt>
      <trkpt lat="45.30409" lon="5.83724">
        <ele>1455</ele>
        <time>2025-08-09T09:09:25.000Z</time>
      </trkpt>
      <trkpt lat="45.30432" lon="5.83724">
        <ele>1460</ele>
        <time>2025-08-09T09:09:52.000Z</time>
      </trkpt>
      <trkpt lat="45.30454" lon="5.83729">
        <ele>1460</ele>
        <time>2025-08-09T09:10:22.000Z</time>
      </trkpt>
      <trkpt lat="45.30477" lon="5.8373">
        <ele>1462</ele>
        <time>2025-08-09T09:10:58.000Z</time>
      </trkpt>
      <trkpt lat="45.30498" lon="5.83737">
        <ele>1460</ele>
        <time>2025-08-09T09:11:22.000Z</time>
      </trkpt>
      <trkpt lat="45.30521" lon="5.83745">
        <ele>1464</ele>
        <time>2025-08-09T09:11:49.000Z</time>
      </trkpt>
      <trkpt lat="45.3054" lon="5.83761">
        <ele>1469</ele>
        <time>2025-08-09T09:12:10.000Z</time>
      </trkpt>
      <trkpt lat="45.30559" lon="5.83779">
        <ele>1473</ele>
        <time>2025-08-09T09:12:43.000Z</time>
      </trkpt>
      <trkpt lat="45.3058" lon="5.83792">
        <ele>1485</ele>
        <time>2025-08-09T09:13:25.000Z</time>
      </trkpt>
      <trkpt lat="45.30597" lon="5.83814">
        <ele>1487</ele>
        <time>2025-08-09T09:14:07.000Z</time>
      </trkpt>
      <trkpt lat="45.30614" lon="5.83833">
        <ele>1484</ele>
        <time>2025-08-09T09:14:34.000Z</time>
      </trkpt>
      <trkpt lat="45.30633" lon="5.83853">
        <ele>1483</ele>
        <time>2025-08-09T09:14:58.000Z</time>
      </trkpt>
      <trkpt lat="45.30655" lon="5.83866">
        <ele>1484</ele>
        <time>2025-08-09T09:15:22.000Z</time>
      </trkpt>
      <trkpt lat="45.30674" lon="5.83885">
        <ele>1484</ele>
        <time>2025-08-09T09:15:40.000Z</time>
      </trkpt>
      <trkpt lat="45.30694" lon="5.83904">
        <ele>1483</ele>
        <time>2025-08-09T09:16:01.000Z</time>
      </trkpt>
      <trkpt lat="45.30713" lon="5.83925">
        <ele>1482</ele>
        <time>2025-08-09T09:16:28.000Z</time>
      </trkpt>
      <trkpt lat="45.30731" lon="5.83947">
        <ele>1478</ele>
        <time>2025-08-09T09:16:55.000Z</time>
      </trkpt>
      <trkpt lat="45.30747" lon="5.83969">
        <ele>1482</ele>
        <time>2025-08-09T09:17:22.000Z</time>
      </trkpt>
      <trkpt lat="45.30765" lon="5.83989">
        <ele>1485</ele>
        <time>2025-08-09T09:18:16.000Z</time>
      </trkpt>
      <trkpt lat="45.30784" lon="5.84011">
        <ele>1486</ele>
        <time>2025-08-09T09:18:43.000Z</time>
      </trkpt>
      <trkpt lat="45.30799" lon="5.84037">
        <ele>1485</ele>
        <time>2025-08-09T09:19:04.000Z</time>
      </trkpt>
      <trkpt lat="45.30816" lon="5.84057">
        <ele>1488</ele>
        <time>2025-08-09T09:19:25.000Z</time>
      </trkpt>
      <trkpt lat="45.30831" lon="5.84083">
        <ele>1490</ele>
        <time>2025-08-09T09:19:46.000Z</time>
      </trkpt>
      <trkpt lat="45.30842" lon="5.84113">
        <ele>1491</ele>
        <time>2025-08-09T09:20:07.000Z</time>
      </trkpt>
      <trkpt lat="45.30847" lon="5.84144">
        <ele>1489</ele>
        <time>2025-08-09T09:20:34.000Z</time>
      </trkpt>
      <trkpt lat="45.3085" lon="5.84177">
        <ele>1492</ele>
        <time>2025-08-09T09:20:58.000Z</time>
      </trkpt>
      <trkpt lat="45.3086" lon="5.84203">
        <ele>1500</ele>
        <time>2025-08-09T09:21:46.000Z</time>
      </trkpt>
      <trkpt lat="45.30881" lon="5.84205">
        <ele>1507</ele>
        <time>2025-08-09T09:22:34.000Z</time>
      </trkpt>
      <trkpt lat="45.30904" lon="5.84205">
        <ele>1513</ele>
        <time>2025-08-09T09:23:19.000Z</time>
      </trkpt>
      <trkpt lat="45.30927" lon="5.84207">
        <ele>1518</ele>
        <time>2025-08-09T09:24:04.000Z</time>
      </trkpt>
      <trkpt lat="45.30949" lon="5.84213">
        <ele>1523</ele>
        <time>2025-08-09T09:24:37.000Z</time>
      </trkpt>
      <trkpt lat="45.30971" lon="5.84218">
        <ele>1528</ele>
        <time>2025-08-09T09:25:10.000Z</time>
      </trkpt>
      <trkpt lat="45.30993" lon="5.84218">
        <ele>1535</ele>
        <time>2025-08-09T09:26:01.000Z</time>
      </trkpt>
      <trkpt lat="45.31015" lon="5.84219">
        <ele>1541</ele>
        <time>2025-08-09T09:26:43.000Z</time>
      </trkpt>
      <trkpt lat="45.31032" lon="5.842">
        <ele>1543</ele>
        <time>2025-08-09T09:27:31.000Z</time>
      </trkpt>
      <trkpt lat="45.31046" lon="5.84172">
        <ele>1545</ele>
        <time>2025-08-09T09:27:55.000Z</time>
      </trkpt>
      <trkpt lat="45.31056" lon="5.84142">
        <ele>1548</ele>
        <time>2025-08-09T09:28:19.000Z</time>
      </trkpt>
      <trkpt lat="45.31063" lon="5.84111">
        <ele>1553</ele>
        <time>2025-08-09T09:28:52.000Z</time>
      </trkpt>
      <trkpt lat="45.31067" lon="5.84079">
        <ele>1559</ele>
        <time>2025-08-09T09:29:43.000Z</time>
      </trkpt>
      <trkpt lat="45.31068" lon="5.84048">
        <ele>1565</ele>
        <time>2025-08-09T09:30:52.000Z</time>
      </trkpt>
      <trkpt lat="45.3106" lon="5.8402">
        <ele>1569</ele>
        <time>2025-08-09T09:31:28.000Z</time>
      </trkpt>
      <trkpt lat="45.31065" lon="5.8399">
        <ele>1578</ele>
        <time>2025-08-09T09:32:23.000Z</time>
      </trkpt>
      <trkpt lat="45.31077" lon="5.83964">
        <ele>1585</ele>
        <time>2025-08-09T09:33:05.000Z</time>
      </trkpt>
      <trkpt lat="45.31093" lon="5.83941">
        <ele>1586</ele>
        <time>2025-08-09T09:33:41.000Z</time>
      </trkpt>
      <trkpt lat="45.31107" lon="5.83917">
        <ele>1596</ele>
        <time>2025-08-09T09:34:35.000Z</time>
      </trkpt>
      <trkpt lat="45.31124" lon="5.83896">
        <ele>1604</ele>
        <time>2025-08-09T09:35:29.000Z</time>
      </trkpt>
      <trkpt lat="45.31143" lon="5.83879">
        <ele>1603</ele>
        <time>2025-08-09T09:36:02.000Z</time>
      </trkpt>
      <trkpt lat="45.31162" lon="5.83862">
        <ele>1608</ele>
        <time>2025-08-09T09:36:32.000Z</time>
      </trkpt>
      <trkpt lat="45.31182" lon="5.83849">
        <ele>1611</ele>
        <time>2025-08-09T09:36:59.000Z</time>
      </trkpt>
      <trkpt lat="45.31205" lon="5.83838">
        <ele>1613</ele>
        <time>2025-08-09T09:37:30.000Z</time>
      </trkpt>
      <trkpt lat="45.31226" lon="5.83822">
        <ele>1613</ele>
        <time>2025-08-09T09:37:57.000Z</time>
      </trkpt>
      <trkpt lat="45.31246" lon="5.83805">
        <ele>1620</ele>
        <time>2025-08-09T09:38:30.000Z</time>
      </trkpt>
      <trkpt lat="45.31267" lon="5.83791">
        <ele>1626</ele>
        <time>2025-08-09T09:39:09.000Z</time>
      </trkpt>
      <trkpt lat="45.31288" lon="5.83778">
        <ele>1637</ele>
        <time>2025-08-09T09:40:51.000Z</time>
      </trkpt>
      <trkpt lat="45.31308" lon="5.83765">
        <ele>1644</ele>
        <time>2025-08-09T09:41:51.000Z</time>
      </trkpt>
      <trkpt lat="45.3133" lon="5.83757">
        <ele>1649</ele>
        <time>2025-08-09T09:42:57.000Z</time>
      </trkpt>
      <trkpt lat="45.31351" lon="5.83747">
        <ele>1657</ele>
        <time>2025-08-09T09:43:42.000Z</time>
      </trkpt>
      <trkpt lat="45.31372" lon="5.83736">
        <ele>1660</ele>
        <time>2025-08-09T09:44:33.000Z</time>
      </trkpt>
      <trkpt lat="45.31391" lon="5.8372">
        <ele>1669</ele>
        <time>2025-08-09T09:46:03.000Z</time>
      </trkpt>
      <trkpt lat="45.31408" lon="5.83703">
        <ele>1677</ele>
        <time>2025-08-09T09:47:09.000Z</time>
      </trkpt>
      <trkpt lat="45.31409" lon="5.83674">
        <ele>1688</ele>
        <time>2025-08-09T09:48:53.000Z</time>
      </trkpt>
      <trkpt lat="45.31418" lon="5.83651">
        <ele>1696</ele>
        <time>2025-08-09T09:50:11.000Z</time>
      </trkpt>
      <trkpt lat="45.31402" lon="5.83638">
        <ele>1700</ele>
        <time>2025-08-09T09:54:47.000Z</time>
      </trkpt>
      <trkpt lat="45.3138" lon="5.83633">
        <ele>1708</ele>
        <time>2025-08-09T09:55:41.000Z</time>
      </trkpt>
      <trkpt lat="45.31358" lon="5.83625">
        <ele>1716</ele>
        <time>2025-08-09T09:56:35.000Z</time>
      </trkpt>
      <trkpt lat="45.3134" lon="5.83606">
        <ele>1721</ele>
        <time>2025-08-09T09:57:29.000Z</time>
      </trkpt>
      <trkpt lat="45.31319" lon="5.83593">
        <ele>1724</ele>
        <time>2025-08-09T09:58:08.000Z</time>
      </trkpt>
      <trkpt lat="45.31297" lon="5.83584">
        <ele>1727</ele>
        <time>2025-08-09T09:58:53.000Z</time>
      </trkpt>
      <trkpt lat="45.31274" lon="5.83577">
        <ele>1731</ele>
        <time>2025-08-09T09:59:35.000Z</time>
      </trkpt>
      <trkpt lat="45.31252" lon="5.83566">
        <ele>1733</ele>
        <time>2025-08-09T10:00:08.000Z</time>
      </trkpt>
      <trkpt lat="45.31231" lon="5.83561">
        <ele>1738</ele>
        <time>2025-08-09T10:00:50.000Z</time>
      </trkpt>
      <trkpt lat="45.31209" lon="5.83551">
        <ele>1741</ele>
        <time>2025-08-09T10:01:32.000Z</time>
      </trkpt>
      <trkpt lat="45.31186" lon="5.83537">
        <ele>1743</ele>
        <time>2025-08-09T10:02:14.000Z</time>
      </trkpt>
      <trkpt lat="45.31166" lon="5.83524">
        <ele>1746</ele>
        <time>2025-08-09T10:02:41.000Z</time>
      </trkpt>
      <trkpt lat="45.31144" lon="5.83519">
        <ele>1750</ele>
        <time>2025-08-09T10:03:17.000Z</time>
      </trkpt>
      <trkpt lat="45.31128" lon="5.83543">
        <ele>1760</ele>
        <time>2025-08-09T10:04:05.000Z</time>
      </trkpt>
    </trkseg>
  </trk>
</gpx>